createdAt,value
2023-02-28T00:02:35.290Z,75.85
2023-02-28T00:25:51.116Z,76.98
2023-02-28T00:29:43.678Z,76.47
2023-02-28T00:33:35.558Z,76.77
2023-02-28T00:37:32.463Z,76.58
2023-02-28T00:53:18.691Z,76.86
2023-02-28T00:57:13.139Z,76.78
2023-02-28T01:01:05.744Z,76.89
2023-02-28T01:04:58.383Z,77.19
2023-02-28T01:24:36.399Z,77.94
2023-02-28T01:28:28.507Z,78.29
2023-02-28T01:47:47.259Z,77.18
2023-02-28T01:51:39.921Z,77.25
2023-02-28T01:55:31.566Z,77.55
2023-02-28T02:34:19.577Z,77.36
2023-02-28T02:38:23.218Z,77.11
2023-02-28T02:42:38.168Z,77.05
2023-02-28T02:46:36.719Z,76.86
2023-02-28T02:50:28.213Z,77.13
2023-02-28T02:54:20.862Z,77.11
2023-02-28T02:58:18.396Z,77.39
2023-02-28T03:02:10.780Z,77.03
2023-02-28T03:29:23.017Z,77.59
2023-02-28T03:33:27.298Z,77.34
2023-02-28T03:37:20.082Z,77.48
2023-02-28T04:38:58.856Z,76.71
2023-02-28T04:42:49.765Z,76.00
2023-02-28T04:46:40.791Z,76.51
2023-02-28T04:50:34.651Z,76.68
2023-02-28T05:02:32.169Z,76.73
2023-02-28T05:06:23.921Z,77.01
2023-02-28T05:09:49.689Z,76.92
2023-02-28T05:25:17.578Z,76.63
2023-02-28T05:29:10.473Z,76.58
2023-02-28T05:32:57.870Z,76.51
2023-02-28T05:48:11.036Z,77.21
2023-02-28T05:52:00.138Z,77.32
2023-02-28T05:55:52.570Z,76.40
2023-02-28T05:59:25.119Z,76.93
2023-02-28T06:29:09.405Z,74.73
2023-02-28T06:33:01.767Z,74.53
2023-02-28T06:48:42.914Z,73.64
2023-02-28T06:52:35.395Z,72.87
2023-02-28T06:56:12.587Z,72.79
2023-02-28T06:59:44.115Z,72.27
2023-02-28T07:22:55.315Z,72.42
2023-02-28T07:26:47.211Z,71.65
2023-02-28T07:34:37.987Z,69.66
2023-02-28T07:38:32.849Z,69.86
2023-02-28T07:53:58.267Z,68.05
2023-02-28T07:57:51.771Z,65.59
2023-02-28T08:01:50.721Z,64.96
2023-02-28T08:06:05.614Z,64.75
2023-02-28T08:09:52.502Z,64.80
2023-02-28T08:13:24.122Z,64.72
2023-02-28T08:16:55.319Z,64.18
2023-02-28T08:20:50.435Z,63.79
2023-02-28T08:32:48.379Z,62.28
2023-02-28T08:36:41.673Z,61.42
2023-02-28T08:48:27.927Z,60.72
2023-02-28T08:52:04.659Z,60.56
2023-02-28T08:55:57.478Z,60.76
2023-02-28T08:59:50.358Z,61.48
2023-02-28T09:19:06.767Z,60.71
2023-02-28T09:22:58.821Z,60.38
2023-02-28T09:26:56.796Z,60.27
2023-02-28T09:30:57.111Z,60.43
2023-02-28T09:34:51.307Z,59.10
2023-02-28T09:38:45.031Z,59.19
2023-02-28T09:54:45.602Z,60.42
2023-02-28T09:58:39.028Z,60.81
2023-02-28T10:02:36.961Z,61.08
2023-02-28T10:06:31.340Z,61.70
2023-02-28T10:30:17.680Z,62.57
2023-02-28T10:34:09.532Z,62.57
2023-02-28T10:37:55.741Z,61.86
2023-02-28T10:41:50.201Z,61.84
2023-02-28T10:45:49.687Z,60.76
2023-02-28T10:49:50.481Z,60.99
2023-02-28T10:53:36.030Z,61.34
2023-02-28T10:57:53.730Z,61.47
2023-02-28T11:13:07.520Z,59.94
2023-02-28T11:15:38.090Z,59.30
2023-02-28T11:18:13.976Z,60.05
2023-02-28T11:20:50.381Z,60.84
2023-02-28T11:23:26.390Z,61.26
2023-02-28T11:26:02.551Z,61.14
2023-02-28T11:28:35.114Z,60.95
2023-02-28T11:31:18.246Z,61.53
2023-02-28T11:33:53.393Z,61.58
2023-02-28T11:36:29.328Z,61.81
2023-02-28T11:39:11.728Z,60.99
2023-02-28T11:42:03.090Z,61.57
2023-02-28T11:44:45.321Z,62.31
2023-02-28T11:47:30.232Z,62.34
2023-02-28T11:50:20.979Z,62.12
2023-02-28T11:53:18.218Z,61.82
2023-02-28T11:55:58.507Z,62.10
2023-02-28T11:58:55.600Z,61.65
2023-02-28T12:01:36.114Z,60.98
2023-02-28T12:04:18.251Z,61.19
2023-02-28T12:07:02.025Z,60.74
2023-02-28T12:09:43.830Z,59.91
2023-02-28T12:12:25.560Z,60.39
2023-02-28T12:15:07.543Z,60.90
2023-02-28T12:17:50.856Z,60.83
2023-02-28T12:20:45.278Z,61.20
2023-02-28T12:23:39.193Z,61.48
2023-02-28T12:26:25.517Z,61.38
2023-02-28T12:29:16.547Z,61.37
2023-02-28T12:31:57.178Z,60.90
2023-02-28T12:34:38.303Z,60.87
2023-02-28T12:37:19.351Z,60.63
2023-02-28T12:39:57.281Z,60.84
2023-02-28T12:42:42.427Z,61.24
2023-02-28T12:45:20.027Z,60.79
2023-02-28T12:48:15.114Z,61.64
2023-02-28T12:50:50.482Z,61.54
2023-02-28T12:53:30.326Z,61.51
2023-02-28T12:56:16.903Z,61.95
2023-02-28T12:58:57.370Z,62.08
2023-02-28T13:01:44.508Z,61.41
2023-02-28T13:04:43.170Z,60.75
2023-02-28T13:07:23.036Z,61.18
2023-02-28T13:10:02.283Z,61.54
2023-02-28T13:12:32.762Z,61.63
2023-02-28T13:15:30.144Z,61.89
2023-02-28T13:18:01.218Z,61.96
2023-02-28T13:20:37.603Z,61.90
2023-02-28T13:23:46.263Z,61.74
2023-02-28T13:26:16.785Z,61.79
2023-02-28T13:29:03.082Z,61.37
2023-02-28T13:31:35.552Z,60.96
2023-02-28T13:34:16.862Z,60.95
2023-02-28T13:36:47.147Z,60.49
2023-02-28T13:39:36.400Z,60.55
2023-02-28T13:42:38.674Z,60.81
2023-02-28T13:45:10.027Z,60.53
2023-02-28T13:47:54.757Z,60.43
2023-02-28T13:50:32.029Z,60.17
2023-02-28T13:53:17.764Z,60.62
2023-02-28T13:56:00.823Z,60.49
2023-02-28T13:59:01.544Z,60.98
2023-02-28T14:01:57.999Z,60.76
2023-02-28T14:04:50.073Z,61.41
2023-02-28T14:07:36.573Z,61.88
2023-02-28T14:10:09.840Z,62.27
2023-02-28T14:12:56.754Z,62.31
2023-02-28T14:15:56.396Z,62.16
2023-02-28T14:18:27.656Z,62.05
2023-02-28T14:21:17.206Z,62.36
2023-02-28T14:24:12.623Z,62.03
2023-02-28T14:27:18.151Z,62.02
2023-02-28T14:30:06.069Z,62.53
2023-02-28T14:33:05.937Z,63.07
2023-02-28T14:35:51.028Z,62.65
2023-02-28T14:38:31.717Z,62.74
2023-02-28T14:41:07.569Z,62.68
2023-02-28T14:43:57.621Z,62.36
2023-02-28T14:46:35.892Z,62.53
2023-02-28T14:49:08.706Z,62.68
2023-02-28T14:51:39.049Z,63.16
2023-02-28T14:54:08.622Z,63.42
2023-02-28T14:56:41.569Z,63.93
2023-02-28T14:59:40.684Z,64.00
2023-02-28T15:02:22.178Z,64.05
2023-02-28T15:05:00.088Z,64.33
2023-02-28T15:07:31.257Z,63.95
2023-02-28T15:10:19.628Z,63.84
2023-02-28T15:12:57.779Z,64.00
2023-02-28T15:15:51.706Z,63.77
2023-02-28T15:18:40.642Z,63.61
2023-02-28T15:21:17.859Z,63.70
2023-02-28T15:23:54.941Z,64.07
2023-02-28T15:26:31.925Z,63.81
2023-02-28T15:29:14.350Z,64.24
2023-02-28T15:32:05.934Z,64.34
2023-02-28T15:34:43.322Z,64.74
2023-02-28T15:37:36.229Z,64.66
2023-02-28T15:40:18.363Z,64.60
2023-02-28T15:43:17.659Z,64.87
2023-02-28T15:45:52.981Z,64.83
2023-02-28T15:48:33.552Z,65.16
2023-02-28T15:51:38.912Z,65.51
2023-02-28T15:54:24.471Z,65.52
2023-02-28T15:56:58.777Z,65.92
2023-02-28T15:59:31.488Z,65.94
2023-02-28T16:02:16.073Z,66.53
2023-02-28T16:05:00.093Z,66.46
2023-02-28T16:07:29.779Z,66.39
2023-02-28T16:10:01.252Z,66.70
2023-02-28T16:12:34.464Z,66.98
2023-02-28T16:15:10.876Z,67.04
2023-02-28T16:17:40.937Z,66.67
2023-02-28T16:20:17.243Z,66.73
2023-02-28T16:22:47.775Z,66.94
2023-02-28T16:25:20.689Z,67.39
2023-02-28T16:27:59.317Z,67.99
2023-02-28T16:30:33.819Z,68.08
2023-02-28T16:33:03.828Z,67.99
2023-02-28T16:35:32.780Z,67.99
2023-02-28T16:38:03.070Z,68.27
2023-02-28T16:40:37.081Z,68.40
2023-02-28T16:43:18.649Z,68.76
2023-02-28T16:45:49.592Z,68.79
2023-02-28T16:48:18.880Z,69.10
2023-02-28T16:50:49.285Z,69.21
2023-02-28T16:53:18.877Z,69.47
2023-02-28T16:55:49.063Z,69.43
2023-02-28T16:58:19.414Z,69.57
2023-02-28T17:00:49.336Z,69.62
2023-02-28T17:03:33.307Z,69.87
2023-02-28T17:06:06.460Z,69.85
2023-02-28T17:08:36.899Z,69.82
2023-02-28T17:11:07.035Z,70.13
2023-02-28T17:13:37.672Z,70.30
2023-02-28T17:16:19.484Z,70.59
2023-02-28T17:18:51.645Z,70.66
2023-02-28T17:21:21.945Z,70.67
2023-02-28T17:23:52.424Z,70.71
2023-02-28T17:26:25.761Z,70.88
2023-02-28T17:28:57.626Z,70.87
2023-02-28T17:31:28.866Z,70.74
2023-02-28T17:33:58.103Z,71.02
2023-02-28T17:36:29.122Z,71.42
2023-02-28T17:38:59.872Z,71.50
2023-02-28T17:41:31.809Z,71.55
2023-02-28T17:44:02.026Z,71.70
2023-02-28T17:46:32.690Z,71.90
2023-02-28T17:49:04.274Z,72.06
2023-02-28T17:51:34.493Z,71.92
2023-02-28T17:54:04.518Z,71.76
2023-02-28T17:56:34.395Z,72.02
2023-02-28T17:59:03.724Z,71.92
2023-02-28T18:01:33.792Z,72.03
2023-02-28T18:04:04.265Z,72.00
2023-02-28T18:06:48.045Z,71.90
2023-02-28T18:09:23.170Z,72.11
2023-02-28T18:11:57.433Z,72.07
2023-02-28T18:14:27.240Z,72.24
2023-02-28T18:16:57.994Z,72.42
2023-02-28T18:19:28.275Z,72.69
2023-02-28T18:21:59.017Z,72.59
2023-02-28T18:24:29.266Z,72.97
2023-02-28T18:27:00.015Z,72.88
2023-02-28T18:29:30.288Z,72.83
2023-02-28T18:32:02.892Z,72.63
2023-02-28T18:34:33.038Z,72.73
2023-02-28T18:37:03.474Z,72.99
2023-02-28T18:39:33.728Z,72.90
2023-02-28T18:42:04.453Z,72.71
2023-02-28T18:44:33.660Z,72.77
2023-02-28T18:47:04.363Z,73.15
2023-02-28T18:49:36.127Z,73.33
2023-02-28T18:52:06.346Z,73.00
2023-02-28T18:54:36.388Z,72.73
2023-02-28T18:57:06.749Z,72.89
2023-02-28T18:59:36.923Z,73.04
2023-02-28T19:02:07.403Z,73.29
2023-02-28T19:04:37.331Z,73.30
2023-02-28T19:07:07.655Z,73.33
2023-02-28T19:09:39.529Z,73.58
2023-02-28T19:12:08.912Z,73.70
2023-02-28T19:14:39.252Z,73.67
2023-02-28T19:17:09.557Z,73.79
2023-02-28T19:19:39.403Z,73.86
2023-02-28T19:22:09.390Z,73.85
2023-02-28T19:24:39.939Z,74.27
2023-02-28T19:27:10.190Z,74.36
2023-02-28T19:29:40.359Z,74.04
2023-02-28T19:32:10.590Z,73.84
2023-02-28T19:34:39.427Z,73.50
2023-02-28T19:37:11.836Z,73.76
2023-02-28T19:39:47.328Z,74.12
2023-02-28T19:42:19.111Z,74.17
2023-02-28T19:44:49.076Z,74.32
2023-02-28T19:47:18.611Z,74.73
2023-02-28T19:49:48.892Z,74.39
2023-02-28T19:52:18.545Z,74.80
2023-02-28T19:54:47.552Z,74.87
2023-02-28T19:57:17.901Z,74.85
2023-02-28T19:59:47.592Z,74.61
2023-02-28T20:02:19.960Z,75.04
2023-02-28T20:04:51.015Z,74.45
2023-02-28T20:07:21.669Z,74.77
2023-02-28T20:09:51.996Z,74.85
2023-02-28T20:12:24.644Z,74.91
2023-02-28T20:14:58.588Z,75.23
2023-02-28T20:17:30.998Z,74.88
2023-02-28T20:19:59.791Z,74.26
2023-02-28T20:22:32.086Z,74.95
2023-02-28T20:25:02.324Z,75.11
2023-02-28T20:27:34.269Z,75.24
2023-02-28T20:30:05.451Z,75.23
2023-02-28T20:32:39.367Z,74.99
2023-02-28T20:35:12.315Z,74.89
2023-02-28T20:37:42.322Z,74.35
2023-02-28T20:40:12.726Z,74.43
2023-02-28T20:42:42.746Z,74.44
2023-02-28T20:45:12.776Z,75.06
2023-02-28T20:47:44.107Z,75.02
2023-02-28T20:50:13.929Z,75.46
2023-02-28T20:52:47.327Z,75.14
2023-02-28T20:55:17.264Z,75.63
2023-02-28T20:57:47.830Z,75.89
2023-02-28T21:00:20.959Z,75.82
2023-02-28T21:02:51.263Z,75.89
2023-02-28T21:05:20.068Z,76.17
2023-02-28T21:07:49.695Z,76.01
2023-02-28T21:10:19.838Z,75.57
2023-02-28T21:12:51.103Z,75.86
2023-02-28T21:15:23.139Z,76.06
2023-02-28T21:17:52.572Z,76.31
2023-02-28T21:20:22.652Z,75.87
2023-02-28T21:22:53.969Z,75.76
2023-02-28T21:25:23.944Z,75.35
2023-02-28T21:27:56.799Z,75.42
2023-02-28T21:30:26.799Z,75.54
2023-02-28T21:32:58.258Z,75.59
2023-02-28T21:35:28.019Z,75.58
2023-02-28T21:37:57.107Z,75.43
2023-02-28T21:40:27.172Z,75.18
2023-02-28T21:42:57.342Z,73.80
2023-02-28T21:45:29.670Z,74.07
2023-02-28T21:47:59.842Z,74.64
2023-02-28T21:50:29.922Z,75.31
2023-02-28T21:52:59.816Z,75.82
2023-02-28T21:55:30.129Z,75.94
2023-02-28T21:58:00.309Z,75.95
2023-02-28T22:00:31.845Z,75.86
2023-02-28T22:03:02.285Z,76.18
2023-02-28T22:05:32.514Z,75.81
2023-02-28T22:08:02.429Z,75.62
2023-02-28T22:10:35.360Z,75.91
2023-02-28T22:13:05.605Z,76.33
2023-02-28T22:15:38.867Z,76.08
2023-02-28T22:18:09.241Z,76.38
2023-02-28T22:20:39.487Z,77.08
2023-02-28T22:23:09.408Z,77.19
2023-02-28T22:25:40.267Z,77.54
2023-02-28T22:28:10.219Z,77.69
2023-02-28T22:30:40.313Z,77.60
2023-02-28T22:33:10.277Z,77.34
2023-02-28T22:35:40.371Z,77.36
2023-02-28T22:38:12.563Z,77.34
2023-02-28T22:40:42.810Z,77.71
2023-02-28T22:43:12.711Z,77.93
2023-02-28T22:45:42.774Z,78.34
2023-02-28T22:48:11.469Z,78.41
2023-02-28T22:50:41.538Z,78.64
2023-02-28T22:53:11.470Z,78.51
2023-02-28T22:55:40.841Z,78.33
2023-02-28T22:58:10.768Z,78.20
2023-02-28T23:00:39.555Z,78.47
2023-02-28T23:03:11.316Z,78.69
2023-02-28T23:05:41.340Z,78.81
2023-02-28T23:08:11.260Z,78.42
2023-02-28T23:10:44.084Z,78.50
2023-02-28T23:13:14.245Z,78.67
2023-02-28T23:15:44.434Z,78.68
2023-02-28T23:18:15.967Z,78.95
2023-02-28T23:20:45.507Z,78.78
2023-02-28T23:23:15.438Z,78.56
2023-02-28T23:25:45.434Z,78.58
2023-02-28T23:28:15.429Z,78.64
2023-02-28T23:30:45.338Z,78.61
2023-02-28T23:33:15.251Z,78.76
2023-02-28T23:35:45.354Z,78.50
2023-02-28T23:38:14.766Z,78.57
2023-02-28T23:40:44.622Z,79.32
2023-02-28T23:43:14.656Z,79.03
2023-02-28T23:45:47.050Z,79.12
2023-02-28T23:48:17.885Z,79.11
2023-02-28T23:50:48.629Z,79.51
2023-02-28T23:53:18.571Z,79.35
2023-02-28T23:55:48.842Z,79.57
2023-02-28T23:58:18.802Z,79.15
